LGKO/KGS METAR and TAF weather

Enter ICAO airport designator
Station Type Date Time Source
LGKO METAR 2019/04/25 11:50 UTC NOAA

LGKO 251150Z 19004KT CAVOK 24/05 Q1023


Station Type Date Time Source
LGKO Decoded METAR 2019/04/25 11:50 UTC NOAA

Kos Airport , Greece (LGKO) 36-47N 027-04E
Apr 25, 2019 - 07:50 AM EDT / 2019.04.25 1150 UTC
Wind: from the S (190 degrees) at 5 MPH (4 KT):0
Visibility: greater than 7 mile(s):0
Temperature: 75 F (24 C)
Dew Point: 41 F (5 C)
Relative Humidity: 29%
Pressure (altimeter): 30.21 in. Hg (1023 hPa)
ob: LGKO 251150Z 19004KT CAVOK 24/05 Q1023
cycle: 12

Station Type Date Time Source
LGKO TAF 2019/04/25 12:15 UTC NOAA

TAF LGKO 251100Z 2512/2612 VRB05KT 9999 FEW020
BECMG 2518/2520 33010KT

Example: see airport list